createdAt,value
2019-02-24T00:01:02.312Z,-0.24
2019-02-24T00:03:33.126Z,-0.24
2019-02-24T00:06:07.049Z,-0.25
2019-02-24T00:08:38.847Z,-0.24
2019-02-24T00:11:11.040Z,-0.27
2019-02-24T00:13:43.316Z,-0.27
2019-02-24T00:16:13.976Z,-0.35
2019-02-24T00:18:46.772Z,-0.29
2019-02-24T00:21:17.329Z,-0.31
2019-02-24T00:23:47.785Z,-0.21
2019-02-24T00:26:19.142Z,-0.21
2019-02-24T00:28:49.669Z,-0.24
2019-02-24T00:31:21.747Z,-0.23
2019-02-24T00:33:53.166Z,-0.25
2019-02-24T00:36:26.464Z,-0.24
2019-02-24T00:38:56.965Z,-0.24
2019-02-24T00:41:29.368Z,-0.35
2019-02-24T00:43:59.847Z,-0.36
2019-02-24T00:46:30.230Z,-0.41
2019-02-24T00:49:00.967Z,-0.44
2019-02-24T00:51:34.698Z,-0.47
2019-02-24T00:54:07.304Z,-0.55
2019-02-24T00:56:39.086Z,-0.52
2019-02-24T00:59:10.407Z,-0.42
2019-02-24T01:01:41.024Z,-0.49
2019-02-24T01:04:13.285Z,-0.53
2019-02-24T01:06:43.897Z,-0.51
2019-02-24T01:09:14.552Z,-0.54
2019-02-24T01:11:46.415Z,-0.46
2019-02-24T01:14:16.950Z,-0.44
2019-02-24T01:16:49.326Z,-0.38
2019-02-24T01:19:19.975Z,-0.40
2019-02-24T01:21:51.924Z,-0.36
2019-02-24T01:24:22.760Z,-0.39
2019-02-24T01:26:53.688Z,-0.37
2019-02-24T01:29:24.461Z,-0.39
2019-02-24T01:31:55.226Z,-0.42
2019-02-24T01:34:25.814Z,-0.40
2019-02-24T01:36:56.368Z,-0.42
2019-02-24T01:39:29.131Z,-0.39
2019-02-24T01:41:59.752Z,-0.43
2019-02-24T01:44:31.498Z,-0.40
2019-02-24T01:47:01.916Z,-0.37
2019-02-24T01:49:34.238Z,-0.39
2019-02-24T01:52:05.096Z,-0.37
2019-02-24T01:54:36.390Z,-0.43
2019-02-24T01:57:10.004Z,-0.47
2019-02-24T01:59:43.332Z,-0.40
2019-02-24T02:02:14.727Z,-0.42
2019-02-24T02:04:46.032Z,-0.45
2019-02-24T02:07:17.605Z,-0.44
2019-02-24T02:09:48.096Z,-0.45
2019-02-24T02:12:22.119Z,-0.47
2019-02-24T02:14:54.306Z,-0.38
2019-02-24T02:17:25.164Z,-0.30
2019-02-24T02:19:55.577Z,-0.33
2019-02-24T02:22:26.256Z,-0.27
2019-02-24T02:24:57.090Z,-0.14
2019-02-24T02:27:28.396Z,-0.24
2019-02-24T02:30:01.504Z,-0.29
2019-02-24T02:32:31.824Z,-0.36
2019-02-24T02:35:03.921Z,-0.43
2019-02-24T02:37:36.198Z,-0.51
2019-02-24T02:40:06.874Z,-0.53
2019-02-24T02:42:37.431Z,-0.56
2019-02-24T02:45:10.215Z,-0.58
2019-02-24T02:47:41.568Z,-0.63
2019-02-24T02:50:12.809Z,-0.61
2019-02-24T02:52:43.310Z,-0.64
2019-02-24T02:55:13.728Z,-0.63
2019-02-24T02:57:44.209Z,-0.63
2019-02-24T03:00:32.145Z,-0.62
2019-02-24T03:03:02.575Z,-0.61
2019-02-24T03:05:34.743Z,-0.62
2019-02-24T03:08:12.950Z,-0.61
2019-02-24T03:10:43.389Z,-0.64
2019-02-24T03:13:13.662Z,-0.65
2019-02-24T03:15:44.041Z,-0.63
2019-02-24T03:18:14.572Z,-0.61
2019-02-24T03:20:45.208Z,-0.65
2019-02-24T03:23:17.354Z,-0.65
2019-02-24T03:25:47.814Z,-0.64
2019-02-24T03:28:19.877Z,-0.64
2019-02-24T03:30:52.983Z,-0.65
2019-02-24T03:33:25.035Z,-0.71
2019-02-24T03:35:56.493Z,-0.74
2019-02-24T03:38:28.397Z,-0.75
2019-02-24T03:40:58.603Z,-0.76
2019-02-24T03:43:29.048Z,-0.78
2019-02-24T03:46:00.367Z,-0.82
2019-02-24T03:48:31.845Z,-0.83
2019-02-24T03:51:02.164Z,-0.86
2019-02-24T03:53:33.514Z,-0.83
2019-02-24T03:56:04.865Z,-0.77
2019-02-24T03:58:35.386Z,-0.76
2019-02-24T04:01:05.812Z,-0.76
2019-02-24T04:03:36.139Z,-0.71
2019-02-24T04:06:08.318Z,-0.71
2019-02-24T04:08:40.791Z,-0.69
2019-02-24T04:11:12.044Z,-0.73
2019-02-24T04:13:43.288Z,-0.55
2019-02-24T04:16:15.409Z,-0.46
2019-02-24T04:18:45.694Z,-0.52
2019-02-24T04:21:15.968Z,-0.53
2019-02-24T04:23:47.591Z,-0.55
2019-02-24T04:26:18.108Z,-0.62
2019-02-24T04:28:50.843Z,-0.65
2019-02-24T04:31:21.196Z,-0.65
2019-02-24T04:33:52.320Z,-0.62
2019-02-24T04:36:23.823Z,-0.72
2019-02-24T04:38:55.737Z,-0.74
2019-02-24T04:41:27.847Z,-0.83
2019-02-24T04:43:58.218Z,-0.90
2019-02-24T04:46:29.736Z,-0.95
2019-02-24T04:48:59.981Z,-0.98
2019-02-24T04:51:31.699Z,-0.87
2019-02-24T04:54:03.017Z,-0.72
2019-02-24T04:56:33.219Z,-0.78
2019-02-24T04:59:03.672Z,-0.84
2019-02-24T05:01:34.854Z,-0.86
2019-02-24T05:04:06.966Z,-0.90
2019-02-24T05:06:37.378Z,-0.92
2019-02-24T05:09:09.791Z,-0.97
2019-02-24T05:11:40.079Z,-1.08
2019-02-24T05:14:10.520Z,-1.06
2019-02-24T05:16:42.221Z,-1.08
2019-02-24T05:19:14.341Z,-1.12
2019-02-24T05:21:45.699Z,-1.14
2019-02-24T05:24:16.025Z,-1.24
2019-02-24T05:26:47.276Z,-1.33
2019-02-24T05:29:17.905Z,-1.40
2019-02-24T05:31:48.443Z,-1.41
2019-02-24T05:34:19.212Z,-1.46
2019-02-24T05:36:51.449Z,-1.42
2019-02-24T05:39:23.772Z,-1.39
2019-02-24T05:41:54.050Z,-1.39
2019-02-24T05:44:24.396Z,-1.43
2019-02-24T05:46:54.772Z,-1.34
2019-02-24T05:49:26.774Z,-1.30
2019-02-24T05:51:58.663Z,-1.30
2019-02-24T05:54:28.849Z,-1.33
2019-02-24T05:56:59.279Z,-1.32
2019-02-24T05:59:31.443Z,-1.37
2019-02-24T06:02:01.602Z,-1.30
2019-02-24T06:04:32.022Z,-1.22
2019-02-24T06:07:03.475Z,-1.28
2019-02-24T06:09:33.834Z,-1.33
2019-02-24T06:12:04.442Z,-1.39
2019-02-24T06:14:35.279Z,-1.43
2019-02-24T06:17:06.536Z,-1.44
2019-02-24T06:19:38.636Z,-1.38
2019-02-24T06:22:09.070Z,-1.47
2019-02-24T06:24:39.491Z,-1.45
2019-02-24T06:27:10.100Z,-1.46
2019-02-24T06:29:40.648Z,-1.42
2019-02-24T06:32:11.134Z,-1.40
2019-02-24T06:34:42.073Z,-1.36
2019-02-24T06:37:14.447Z,-1.32
2019-02-24T06:39:46.748Z,-1.11
2019-02-24T06:42:18.215Z,-0.91
2019-02-24T06:44:49.045Z,-0.69
2019-02-24T06:47:19.580Z,-0.38
2019-02-24T06:49:49.839Z,0.15
2019-02-24T06:52:23.562Z,0.46
2019-02-24T06:54:54.743Z,1.12
2019-02-24T06:57:25.976Z,1.78
2019-02-24T06:59:57.145Z,2.42
2019-02-24T07:02:27.695Z,2.75
2019-02-24T07:04:57.786Z,2.80
2019-02-24T07:07:28.234Z,3.28
2019-02-24T07:09:58.417Z,3.52
2019-02-24T07:12:28.611Z,3.71
2019-02-24T07:14:58.838Z,4.15
2019-02-24T07:17:29.454Z,4.95
2019-02-24T07:20:00.889Z,5.57
2019-02-24T07:22:32.211Z,5.93
2019-02-24T07:25:02.610Z,6.22
2019-02-24T07:27:34.764Z,6.44
2019-02-24T07:30:05.885Z,6.77
2019-02-24T07:32:36.634Z,6.75
2019-02-24T07:35:07.261Z,7.13
2019-02-24T07:37:38.326Z,7.70
2019-02-24T07:40:09.674Z,8.11
2019-02-24T07:42:41.260Z,8.17
2019-02-24T07:45:13.290Z,8.16
2019-02-24T07:47:43.715Z,8.23
2019-02-24T07:50:14.989Z,8.59
2019-02-24T07:52:48.277Z,8.40
2019-02-24T07:55:19.125Z,8.47
2019-02-24T07:57:50.577Z,8.31
2019-02-24T08:00:20.708Z,8.79
2019-02-24T08:02:51.299Z,8.92
2019-02-24T08:05:21.512Z,8.60
2019-02-24T08:07:52.168Z,9.09
2019-02-24T08:10:23.825Z,9.27
2019-02-24T08:12:54.664Z,9.84
2019-02-24T08:15:26.353Z,10.70
2019-02-24T08:17:56.638Z,11.40
2019-02-24T08:20:28.710Z,11.53
2019-02-24T08:23:00.203Z,12.44
2019-02-24T08:25:30.855Z,12.94
2019-02-24T08:28:02.498Z,13.44
2019-02-24T08:30:41.212Z,13.32
2019-02-24T08:33:05.611Z,13.53
2019-02-24T08:35:37.379Z,13.30
2019-02-24T08:38:09.646Z,13.82
2019-02-24T08:40:39.972Z,13.78
2019-02-24T08:43:10.304Z,13.58
2019-02-24T08:45:40.629Z,13.81
2019-02-24T08:48:11.164Z,13.80
2019-02-24T08:50:41.491Z,14.34
2019-02-24T08:53:12.047Z,13.67
2019-02-24T08:55:42.557Z,14.35
2019-02-24T08:58:14.147Z,13.68
2019-02-24T09:00:51.041Z,13.95
2019-02-24T09:03:20.707Z,13.47
2019-02-24T09:05:51.442Z,13.86
2019-02-24T09:08:22.938Z,13.67
2019-02-24T09:10:54.557Z,13.75
2019-02-24T09:13:24.894Z,14.05
2019-02-24T09:15:56.298Z,13.97
2019-02-24T09:18:27.691Z,13.82
2019-02-24T09:20:59.034Z,14.11
2019-02-24T09:23:29.472Z,13.68
2019-02-24T09:25:59.762Z,13.32
2019-02-24T09:28:32.120Z,13.31
2019-02-24T09:31:03.654Z,13.17
2019-02-24T09:33:36.211Z,12.87
2019-02-24T09:36:06.662Z,12.46
2019-02-24T09:38:37.173Z,12.37
2019-02-24T09:41:09.553Z,12.35
2019-02-24T09:43:39.797Z,12.19
2019-02-24T09:46:13.281Z,12.17
2019-02-24T09:48:43.609Z,12.51
2019-02-24T09:51:14.244Z,12.59
2019-02-24T09:53:44.572Z,12.27
2019-02-24T09:56:16.412Z,12.39
2019-02-24T09:58:46.456Z,12.26
2019-02-24T10:01:16.898Z,12.13
2019-02-24T10:03:47.333Z,12.21
2019-02-24T10:06:20.718Z,12.08
2019-02-24T10:08:53.397Z,12.02
2019-02-24T10:11:23.833Z,11.80
2019-02-24T10:13:54.363Z,12.25
2019-02-24T10:16:24.793Z,12.11
2019-02-24T10:18:55.159Z,11.86
2019-02-24T10:21:25.756Z,11.85
2019-02-24T10:23:56.495Z,11.68
2019-02-24T10:26:28.039Z,11.78
2019-02-24T10:28:58.569Z,11.97
2019-02-24T10:31:30.961Z,12.33
2019-02-24T10:34:02.746Z,12.46
2019-02-24T10:36:34.116Z,11.93
2019-02-24T10:39:05.223Z,12.33
2019-02-24T10:41:35.651Z,12.13
2019-02-24T10:44:06.902Z,12.33
2019-02-24T10:46:38.569Z,12.28
2019-02-24T10:49:09.903Z,12.62
2019-02-24T10:51:40.453Z,12.26
2019-02-24T10:54:11.792Z,12.69
2019-02-24T10:56:43.021Z,12.80
2019-02-24T10:59:16.923Z,12.76
2019-02-24T11:01:47.957Z,12.80
2019-02-24T11:04:19.865Z,13.13
2019-02-24T11:06:50.294Z,12.62
2019-02-24T11:09:23.693Z,12.46
2019-02-24T11:11:54.248Z,12.27
2019-02-24T11:14:24.512Z,12.47
2019-02-24T11:16:54.800Z,12.16
2019-02-24T11:19:26.232Z,11.98
2019-02-24T11:21:57.031Z,12.31
2019-02-24T11:24:27.339Z,12.63
2019-02-24T11:26:58.603Z,12.36
2019-02-24T11:29:29.345Z,12.39
2019-02-24T11:32:01.447Z,12.31
2019-02-24T11:34:31.908Z,12.52
2019-02-24T11:37:03.490Z,12.74
2019-02-24T11:39:33.879Z,13.02
2019-02-24T11:42:04.002Z,13.12
2019-02-24T11:44:35.075Z,12.74
2019-02-24T11:47:05.681Z,12.72
2019-02-24T11:49:37.270Z,12.65
2019-02-24T11:52:07.489Z,12.75
2019-02-24T11:54:37.815Z,13.03
2019-02-24T11:57:07.984Z,13.30
2019-02-24T11:59:41.009Z,13.31
2019-02-24T12:02:12.441Z,13.17
2019-02-24T12:04:44.097Z,13.23
2019-02-24T12:07:14.548Z,13.28
2019-02-24T12:09:44.936Z,13.29
2019-02-24T12:12:15.113Z,13.17
2019-02-24T12:14:45.403Z,13.13
2019-02-24T12:17:15.849Z,13.21
2019-02-24T12:19:46.298Z,13.26
2019-02-24T12:22:20.532Z,13.04
2019-02-24T12:24:54.025Z,13.21
2019-02-24T12:27:24.524Z,13.29
2019-02-24T12:29:57.645Z,13.28
2019-02-24T12:32:28.201Z,13.39
2019-02-24T12:34:58.704Z,13.28
2019-02-24T12:37:29.161Z,13.21
2019-02-24T12:39:59.657Z,13.28
2019-02-24T12:42:30.375Z,13.33
2019-02-24T12:45:01.775Z,13.27
2019-02-24T12:47:33.729Z,13.13
2019-02-24T12:50:05.914Z,13.25
2019-02-24T12:52:39.598Z,13.21
2019-02-24T12:55:13.231Z,13.09
2019-02-24T12:57:43.689Z,13.15
2019-02-24T13:00:16.895Z,13.03
2019-02-24T13:02:48.695Z,13.08
2019-02-24T13:05:19.228Z,13.13
2019-02-24T13:07:50.703Z,13.22
2019-02-24T13:10:23.158Z,13.09
2019-02-24T13:12:55.153Z,13.05
2019-02-24T13:15:27.498Z,13.21
2019-02-24T13:18:00.591Z,13.08
2019-02-24T13:20:32.864Z,13.13
2019-02-24T13:23:05.341Z,13.25
2019-02-24T13:25:35.792Z,13.19
2019-02-24T13:28:06.258Z,13.31
2019-02-24T13:30:36.520Z,13.35
2019-02-24T13:33:07.573Z,13.23
2019-02-24T13:35:40.741Z,13.50
2019-02-24T13:38:12.586Z,13.43
2019-02-24T13:40:48.790Z,13.35
2019-02-24T13:43:20.173Z,13.29
2019-02-24T13:45:50.473Z,13.31
2019-02-24T13:48:20.599Z,13.55
2019-02-24T13:50:53.904Z,13.56
2019-02-24T13:53:25.628Z,13.58
2019-02-24T13:55:56.445Z,13.46
2019-02-24T13:58:26.831Z,13.31
2019-02-24T14:00:57.506Z,13.41
2019-02-24T14:03:28.186Z,13.43
2019-02-24T14:05:58.845Z,13.49
2019-02-24T14:08:30.495Z,13.51
2019-02-24T14:11:00.839Z,13.36
2019-02-24T14:13:32.497Z,13.42
2019-02-24T14:16:04.042Z,13.40
2019-02-24T14:18:34.401Z,13.45
2019-02-24T14:21:04.558Z,13.47
2019-02-24T14:23:34.819Z,13.47
2019-02-24T14:26:05.419Z,13.52
2019-02-24T14:28:36.830Z,13.54
2019-02-24T14:31:07.631Z,13.63
2019-02-24T14:33:37.719Z,13.58
2019-02-24T14:36:09.397Z,13.66
2019-02-24T14:38:40.149Z,13.74
2019-02-24T14:41:11.539Z,13.67
2019-02-24T14:43:41.904Z,13.67
2019-02-24T14:46:12.277Z,13.55
2019-02-24T14:48:44.712Z,13.49
2019-02-24T14:51:16.107Z,13.46
2019-02-24T14:53:46.433Z,13.56
2019-02-24T14:56:16.863Z,13.58
2019-02-24T14:58:48.419Z,13.49
2019-02-24T15:01:19.906Z,13.42
2019-02-24T15:03:50.618Z,13.50
2019-02-24T15:06:21.298Z,13.49
2019-02-24T15:08:51.823Z,13.34
2019-02-24T15:11:23.143Z,13.27
2019-02-24T15:13:54.293Z,13.29
2019-02-24T15:16:24.901Z,13.19
2019-02-24T15:18:55.759Z,13.14
2019-02-24T15:21:26.097Z,13.04
2019-02-24T15:23:58.089Z,13.03
2019-02-24T15:26:29.502Z,12.98
2019-02-24T15:29:00.958Z,12.97
2019-02-24T15:31:31.414Z,12.75
2019-02-24T15:34:02.917Z,12.61
2019-02-24T15:36:35.306Z,12.51
2019-02-24T15:39:07.747Z,12.36
2019-02-24T15:41:37.885Z,12.27
2019-02-24T15:44:10.119Z,12.19
2019-02-24T15:46:41.753Z,12.17
2019-02-24T15:49:12.056Z,12.08
2019-02-24T15:51:42.534Z,12.03
2019-02-24T15:54:13.100Z,11.95
2019-02-24T15:56:43.373Z,11.92
2019-02-24T15:59:16.014Z,11.93
2019-02-24T16:01:49.296Z,11.85
2019-02-24T16:04:21.964Z,11.81
2019-02-24T16:06:52.326Z,11.71
2019-02-24T16:09:25.916Z,11.68
2019-02-24T16:11:56.486Z,11.56
2019-02-24T16:14:28.780Z,11.50
2019-02-24T16:16:59.390Z,11.45
2019-02-24T16:19:30.667Z,11.36
2019-02-24T16:22:01.606Z,11.29
2019-02-24T16:24:32.066Z,11.24
2019-02-24T16:27:02.576Z,11.07
2019-02-24T16:29:33.995Z,10.96
2019-02-24T16:32:06.371Z,10.83
2019-02-24T16:34:38.029Z,10.75
2019-02-24T16:37:11.942Z,10.66
2019-02-24T16:39:45.020Z,10.63
2019-02-24T16:42:15.641Z,10.64
2019-02-24T16:44:47.963Z,10.62
2019-02-24T16:47:21.055Z,10.44
2019-02-24T16:49:51.770Z,10.25
2019-02-24T16:52:21.999Z,10.10
2019-02-24T16:54:55.326Z,9.91
2019-02-24T16:57:28.003Z,9.73
2019-02-24T16:59:58.869Z,9.54
2019-02-24T17:02:32.972Z,9.37
2019-02-24T17:05:04.160Z,9.18
2019-02-24T17:07:35.196Z,9.04
2019-02-24T17:10:06.480Z,8.95
2019-02-24T17:12:37.848Z,8.83
2019-02-24T17:15:11.551Z,8.77
2019-02-24T17:17:43.870Z,8.74
2019-02-24T17:20:15.824Z,8.74
2019-02-24T17:22:48.681Z,8.71
2019-02-24T17:25:19.219Z,8.53
2019-02-24T17:27:50.886Z,8.43
2019-02-24T17:30:23.702Z,8.30
2019-02-24T17:32:54.483Z,8.20
2019-02-24T17:35:26.492Z,8.10
2019-02-24T17:37:59.259Z,8.04
2019-02-24T17:40:29.786Z,7.90
2019-02-24T17:43:02.796Z,7.76
2019-02-24T17:45:35.478Z,7.64
2019-02-24T17:48:07.130Z,7.53
2019-02-24T17:50:39.403Z,7.43
2019-02-24T17:53:11.467Z,7.35
2019-02-24T17:55:43.634Z,7.31
2019-02-24T17:58:14.057Z,7.26
2019-02-24T18:00:50.015Z,7.26
2019-02-24T18:03:20.444Z,7.22
2019-02-24T18:05:52.438Z,7.15
2019-02-24T18:08:28.287Z,7.06
2019-02-24T18:10:56.231Z,6.93
2019-02-24T18:13:26.552Z,6.85
2019-02-24T18:16:00.003Z,6.75
2019-02-24T18:18:30.960Z,6.65
2019-02-24T18:21:01.933Z,6.62
2019-02-24T18:23:33.771Z,6.47
2019-02-24T18:26:08.409Z,6.30
2019-02-24T18:28:44.994Z,6.22
2019-02-24T18:31:16.883Z,6.16
2019-02-24T18:33:48.971Z,6.12
2019-02-24T18:36:22.142Z,6.07
2019-02-24T18:38:53.420Z,5.93
2019-02-24T18:41:23.843Z,5.91
2019-02-24T18:43:58.441Z,5.90
2019-02-24T18:46:28.866Z,5.83
2019-02-24T18:49:00.310Z,5.80
2019-02-24T18:51:32.536Z,5.71
2019-02-24T18:54:03.953Z,5.67
2019-02-24T18:56:34.593Z,5.75
2019-02-24T18:59:05.219Z,5.74
2019-02-24T19:01:36.344Z,5.65
2019-02-24T19:04:07.416Z,5.54
2019-02-24T19:06:39.322Z,5.50
2019-02-24T19:09:10.542Z,5.49
2019-02-24T19:11:41.682Z,5.39
2019-02-24T19:14:14.767Z,5.31
2019-02-24T19:16:45.078Z,5.24
2019-02-24T19:19:25.175Z,5.15
2019-02-24T19:21:50.461Z,5.07
2019-02-24T19:24:21.012Z,5.02
2019-02-24T19:26:53.880Z,5.07
2019-02-24T19:29:24.676Z,5.01
2019-02-24T19:31:56.499Z,4.98
2019-02-24T19:34:27.310Z,4.98
2019-02-24T19:36:58.956Z,4.90
2019-02-24T19:39:31.175Z,4.86
2019-02-24T19:42:01.748Z,4.81
2019-02-24T19:44:34.218Z,4.72
2019-02-24T19:47:04.648Z,4.64
2019-02-24T19:49:35.137Z,4.64
2019-02-24T19:52:07.009Z,4.65
2019-02-24T19:54:40.316Z,4.62
2019-02-24T19:57:12.476Z,4.42
2019-02-24T19:59:45.316Z,4.24
2019-02-24T20:02:16.814Z,4.18
2019-02-24T20:04:47.675Z,4.14
2019-02-24T20:07:19.582Z,4.10
2019-02-24T20:09:50.092Z,4.16
2019-02-24T20:12:20.156Z,4.11
2019-02-24T20:14:51.133Z,4.05
2019-02-24T20:17:21.570Z,4.00
2019-02-24T20:19:52.027Z,3.98
2019-02-24T20:22:22.485Z,3.98
2019-02-24T20:24:53.050Z,3.98
2019-02-24T20:27:23.558Z,4.06
2019-02-24T20:29:55.125Z,4.09
2019-02-24T20:32:26.184Z,4.05
2019-02-24T20:34:56.903Z,3.99
2019-02-24T20:37:27.363Z,3.92
2019-02-24T20:39:59.602Z,3.90
2019-02-24T20:42:30.679Z,3.82
2019-02-24T20:45:03.240Z,3.79
2019-02-24T20:47:34.689Z,3.75
2019-02-24T20:50:05.939Z,3.71
2019-02-24T20:52:36.703Z,3.67
2019-02-24T20:55:09.864Z,3.64
2019-02-24T20:57:40.904Z,3.58
2019-02-24T21:00:23.108Z,3.51
2019-02-24T21:02:54.307Z,3.47
2019-02-24T21:05:24.849Z,3.45
2019-02-24T21:07:55.678Z,3.41
2019-02-24T21:10:26.093Z,3.35
2019-02-24T21:12:56.581Z,3.36
2019-02-24T21:15:27.293Z,3.36
2019-02-24T21:17:57.695Z,3.33
2019-02-24T21:20:30.255Z,3.29
2019-02-24T21:23:01.093Z,3.23
2019-02-24T21:25:31.956Z,3.25
2019-02-24T21:28:03.952Z,3.30
2019-02-24T21:30:35.334Z,3.33
2019-02-24T21:33:08.027Z,3.23
2019-02-24T21:35:38.270Z,3.22
2019-02-24T21:38:09.064Z,3.21
2019-02-24T21:40:40.310Z,3.19
2019-02-24T21:43:11.082Z,3.14
2019-02-24T21:45:41.846Z,3.15
2019-02-24T21:48:13.175Z,3.10
2019-02-24T21:50:43.955Z,3.16
2019-02-24T21:53:14.444Z,3.18
2019-02-24T21:55:46.088Z,3.37
2019-02-24T21:58:16.302Z,3.37
2019-02-24T22:00:46.812Z,3.29
2019-02-24T22:03:19.370Z,3.19
2019-02-24T22:05:50.198Z,3.08
2019-02-24T22:08:20.507Z,3.16
2019-02-24T22:10:50.970Z,3.12
2019-02-24T22:13:21.431Z,3.07
2019-02-24T22:15:52.221Z,3.04
2019-02-24T22:18:24.703Z,2.97
2019-02-24T22:20:56.132Z,2.89
2019-02-24T22:23:27.665Z,2.85
2019-02-24T22:26:00.946Z,2.84
2019-02-24T22:28:31.212Z,2.76
2019-02-24T22:31:02.871Z,2.69
2019-02-24T22:33:33.288Z,2.68
2019-02-24T22:36:06.297Z,2.65
2019-02-24T22:38:36.769Z,2.59
2019-02-24T22:41:08.902Z,2.59
2019-02-24T22:43:40.862Z,2.46
2019-02-24T22:46:12.418Z,2.27
2019-02-24T22:48:42.951Z,2.32
2019-02-24T22:51:22.595Z,2.42
2019-02-24T22:53:54.875Z,2.35
2019-02-24T22:56:26.422Z,2.17
2019-02-24T22:58:57.532Z,2.10
2019-02-24T23:01:31.885Z,2.03
2019-02-24T23:04:11.604Z,2.02
2019-02-24T23:06:41.960Z,1.96
2019-02-24T23:09:16.523Z,1.93
2019-02-24T23:11:47.326Z,1.94
2019-02-24T23:14:19.598Z,1.92
2019-02-24T23:16:49.975Z,1.89
2019-02-24T23:19:21.579Z,1.79
2019-02-24T23:21:53.954Z,1.79
2019-02-24T23:24:26.926Z,1.80
2019-02-24T23:26:57.181Z,1.77
2019-02-24T23:29:29.336Z,1.71
2019-02-24T23:32:01.205Z,1.54
2019-02-24T23:34:31.474Z,1.56
2019-02-24T23:37:02.476Z,1.57
2019-02-24T23:39:34.380Z,1.52
2019-02-24T23:42:05.920Z,1.38
2019-02-24T23:44:37.055Z,1.31
2019-02-24T23:47:07.823Z,1.24
2019-02-24T23:49:38.211Z,1.23
2019-02-24T23:52:08.745Z,1.27
2019-02-24T23:54:41.364Z,1.26
2019-02-24T23:57:12.779Z,1.27
2019-02-24T23:59:45.770Z,1.37
